createdAt,value
2023-02-09T00:01:15.967Z,12.63
2023-02-09T00:03:45.072Z,12.88
2023-02-09T00:06:18.351Z,13.50
2023-02-09T00:08:48.402Z,12.07
2023-02-09T00:11:22.161Z,12.32
2023-02-09T00:13:50.040Z,13.13
2023-02-09T00:16:19.890Z,11.80
2023-02-09T00:21:53.220Z,10.73
2023-02-09T00:24:22.109Z,12.35
2023-02-09T00:26:51.072Z,14.40
2023-02-09T00:29:22.737Z,11.98
2023-02-09T00:31:53.077Z,10.45
2023-02-09T00:34:21.880Z,10.82
2023-02-09T00:36:53.341Z,11.15
2023-02-09T00:39:21.913Z,11.35
2023-02-09T00:42:08.481Z,12.35
2023-02-09T00:44:40.078Z,12.73
2023-02-09T00:47:09.802Z,12.75
2023-02-09T00:49:40.264Z,9.40
2023-02-09T00:52:10.325Z,10.65
2023-02-09T00:54:39.066Z,11.25
2023-02-09T00:57:07.609Z,12.82
2023-02-09T00:59:37.213Z,12.02
2023-02-09T01:02:05.798Z,10.77
2023-02-09T01:04:34.630Z,14.82
2023-02-09T01:07:03.193Z,11.57
2023-02-09T01:09:33.226Z,9.60
2023-02-09T01:12:02.414Z,11.38
2023-02-09T01:14:32.274Z,10.95
2023-02-09T01:17:00.995Z,10.57
2023-02-09T01:19:32.203Z,13.93
2023-02-09T01:22:00.957Z,10.88
2023-02-09T01:24:29.735Z,12.88
2023-02-09T01:26:59.607Z,14.85
2023-02-09T01:29:28.789Z,13.68
2023-02-09T01:31:57.339Z,13.00
2023-02-09T01:34:25.890Z,12.32
2023-02-09T01:36:54.731Z,10.43
2023-02-09T01:39:23.214Z,12.07
2023-02-09T01:41:51.741Z,12.10
2023-02-09T01:44:53.660Z,11.93
2023-02-09T01:47:23.577Z,11.63
2023-02-09T01:49:53.546Z,10.23
2023-02-09T01:52:26.885Z,11.32
2023-02-09T01:55:00.175Z,10.70
2023-02-09T01:57:34.317Z,9.40
2023-02-09T02:00:06.830Z,9.23
2023-02-09T02:02:46.236Z,12.40
2023-02-09T02:05:15.946Z,10.57
2023-02-09T02:07:50.382Z,8.95
2023-02-09T02:10:18.959Z,6.90
2023-02-09T02:12:47.582Z,7.97
2023-02-09T02:15:16.196Z,8.63
2023-02-09T02:18:02.546Z,9.50
2023-02-09T02:21:09.791Z,8.40
2023-02-09T02:23:49.643Z,9.07
2023-02-09T02:26:51.152Z,10.90
2023-02-09T02:30:07.279Z,9.32
2023-02-09T02:32:54.254Z,7.05
2023-02-09T02:35:30.676Z,8.85
2023-02-09T02:38:12.168Z,8.75
2023-02-09T02:40:47.781Z,7.82
2023-02-09T02:43:26.314Z,6.90
2023-02-09T02:46:00.712Z,9.73
2023-02-09T02:48:41.365Z,11.05
2023-02-09T02:51:13.219Z,10.30
2023-02-09T02:53:45.763Z,8.07
2023-02-09T02:56:19.969Z,9.02
2023-02-09T02:58:51.450Z,8.15
2023-02-09T03:01:24.566Z,8.05
2023-02-09T03:03:56.139Z,9.02
2023-02-09T03:06:24.866Z,6.55
2023-02-09T03:08:55.398Z,8.98
2023-02-09T03:11:29.345Z,8.90
2023-02-09T03:14:11.570Z,7.25
2023-02-09T03:16:45.793Z,8.93
2023-02-09T03:19:32.778Z,6.65
2023-02-09T03:22:08.842Z,8.10
2023-02-09T03:24:42.525Z,10.45
2023-02-09T03:27:17.939Z,8.95
2023-02-09T03:29:49.506Z,8.35
2023-02-09T03:32:22.323Z,9.20
2023-02-09T03:34:53.076Z,8.63
2023-02-09T03:37:21.935Z,9.02
2023-02-09T03:39:50.542Z,8.25
2023-02-09T03:42:19.329Z,11.75
2023-02-09T03:44:48.111Z,9.23
2023-02-09T03:47:16.740Z,9.38
2023-02-09T03:49:45.783Z,8.93
2023-02-09T03:52:19.415Z,10.65
2023-02-09T03:54:49.164Z,8.77
2023-02-09T03:57:17.843Z,8.15
2023-02-09T03:59:46.548Z,8.77
2023-02-09T04:02:15.323Z,10.05
2023-02-09T04:04:43.998Z,8.05
2023-02-09T04:07:12.650Z,8.98
2023-02-09T04:09:42.696Z,9.20
2023-02-09T04:12:11.354Z,7.28
2023-02-09T04:14:39.909Z,8.18
2023-02-09T04:17:10.749Z,8.48
2023-02-09T04:19:39.508Z,8.77
2023-02-09T04:22:08.807Z,8.85
2023-02-09T04:24:37.292Z,10.77
2023-02-09T04:27:08.091Z,8.25
2023-02-09T04:29:36.564Z,11.00
2023-02-09T04:32:05.192Z,10.20
2023-02-09T04:34:33.693Z,11.88
2023-02-09T04:37:04.666Z,9.25
2023-02-09T04:39:33.163Z,11.52
2023-02-09T04:42:01.615Z,8.77
2023-02-09T04:44:31.812Z,8.73
2023-02-09T04:47:01.347Z,8.15
2023-02-09T04:49:30.900Z,10.07
2023-02-09T04:51:59.309Z,11.40
2023-02-09T04:54:27.983Z,33.28
2023-02-09T04:57:10.208Z,12.15
2023-02-09T04:59:41.710Z,19.00
2023-02-09T05:02:10.249Z,10.23
2023-02-09T05:04:40.112Z,11.98
2023-02-09T05:07:08.551Z,10.68
2023-02-09T05:09:37.629Z,13.02
2023-02-09T05:12:06.394Z,12.90
2023-02-09T05:14:34.882Z,14.93
2023-02-09T05:17:04.980Z,14.07
2023-02-09T05:19:33.765Z,11.00
2023-02-09T05:22:02.261Z,11.65
2023-02-09T05:24:30.893Z,13.32
2023-02-09T05:26:59.504Z,28.90
2023-02-09T05:29:28.132Z,13.70
2023-02-09T05:31:56.720Z,17.40
2023-02-09T05:34:26.595Z,20.27
2023-02-09T05:36:55.073Z,14.30
2023-02-09T05:39:23.502Z,14.30
2023-02-09T05:42:09.613Z,13.50
2023-02-09T05:44:38.257Z,12.60
2023-02-09T05:47:07.049Z,13.23
2023-02-09T05:49:37.222Z,13.27
2023-02-09T05:52:06.304Z,15.52
2023-02-09T05:54:36.182Z,14.40
2023-02-09T05:57:06.293Z,13.88
2023-02-09T05:59:35.793Z,13.68
2023-02-09T06:02:04.669Z,17.02
2023-02-09T06:04:33.712Z,15.55
2023-02-09T06:07:03.939Z,16.95
2023-02-09T06:09:32.531Z,15.77
2023-02-09T06:12:01.081Z,14.07
2023-02-09T06:14:29.630Z,15.77
2023-02-09T06:16:58.224Z,16.50
2023-02-09T06:19:26.697Z,15.90
2023-02-09T06:21:57.763Z,17.27
2023-02-09T06:24:27.778Z,17.67
2023-02-09T06:26:57.477Z,20.30
2023-02-09T06:29:26.130Z,18.45
2023-02-09T06:31:54.948Z,19.17
2023-02-09T06:34:23.575Z,17.85
2023-02-09T06:36:52.084Z,16.02
2023-02-09T06:39:20.775Z,16.48
2023-02-09T06:41:50.708Z,18.25
2023-02-09T06:44:19.520Z,24.95
2023-02-09T06:46:48.052Z,28.15
2023-02-09T06:49:16.816Z,25.88
2023-02-09T06:51:45.864Z,28.17
2023-02-09T06:54:14.292Z,28.00
2023-02-09T06:56:42.819Z,22.70
2023-02-09T06:59:12.646Z,21.33
2023-02-09T07:01:41.278Z,23.65
2023-02-09T07:04:09.916Z,19.40
2023-02-09T07:06:38.466Z,26.05
2023-02-09T07:09:06.953Z,20.92
2023-02-09T07:11:37.137Z,18.05
2023-02-09T07:14:05.587Z,17.05
2023-02-09T07:16:35.501Z,19.17
2023-02-09T07:19:04.055Z,18.50
2023-02-09T07:21:32.849Z,17.27
2023-02-09T07:24:01.403Z,15.30
2023-02-09T07:26:29.976Z,16.77
2023-02-09T07:28:59.742Z,18.80
2023-02-09T07:31:29.541Z,18.02
2023-02-09T07:33:59.750Z,15.68
2023-02-09T07:36:28.825Z,16.13
2023-02-09T07:38:58.171Z,17.67
2023-02-09T07:41:31.475Z,17.67
2023-02-09T07:44:00.186Z,20.60
2023-02-09T07:46:28.877Z,18.02
2023-02-09T07:49:01.352Z,18.25
2023-02-09T07:51:32.347Z,15.93
2023-02-09T07:54:04.145Z,19.77
2023-02-09T07:56:38.758Z,16.48
2023-02-09T07:59:07.986Z,18.33
2023-02-09T08:01:36.493Z,18.35
2023-02-09T08:04:06.459Z,19.52
2023-02-09T08:06:42.850Z,17.20
2023-02-09T08:09:13.110Z,16.40
2023-02-09T08:11:46.435Z,17.60
2023-02-09T08:14:19.868Z,20.13
2023-02-09T08:16:50.872Z,19.38
2023-02-09T08:19:24.404Z,17.25
2023-02-09T08:21:53.371Z,18.75
2023-02-09T08:24:22.796Z,22.05
2023-02-09T08:26:51.351Z,16.88
2023-02-09T08:29:19.969Z,18.75
2023-02-09T08:31:48.479Z,20.65
2023-02-09T08:34:16.937Z,16.23
2023-02-09T08:36:46.752Z,19.10
2023-02-09T08:39:15.317Z,19.30
2023-02-09T08:41:46.144Z,21.65
2023-02-09T08:44:14.869Z,15.23
2023-02-09T08:46:44.850Z,18.60
2023-02-09T08:49:13.529Z,17.27
2023-02-09T08:51:42.016Z,17.85
2023-02-09T08:54:11.957Z,17.45
2023-02-09T08:56:40.778Z,15.73
2023-02-09T08:59:09.520Z,17.52
2023-02-09T09:01:40.732Z,14.55
2023-02-09T09:04:10.110Z,15.55
2023-02-09T09:06:39.355Z,15.32
2023-02-09T09:09:08.030Z,17.40
2023-02-09T09:11:38.215Z,12.75
2023-02-09T09:14:06.756Z,14.25
2023-02-09T09:16:35.407Z,12.13
2023-02-09T09:19:06.064Z,12.77
2023-02-09T09:21:34.865Z,18.30
2023-02-09T09:24:03.527Z,13.27
2023-02-09T09:26:32.010Z,13.20
2023-02-09T09:29:01.917Z,13.20
2023-02-09T09:31:30.895Z,14.75
2023-02-09T09:33:59.492Z,11.45
2023-02-09T09:36:29.143Z,13.45
2023-02-09T09:38:57.950Z,12.52
2023-02-09T09:41:32.661Z,10.93
2023-02-09T09:44:04.194Z,12.43
2023-02-09T09:46:40.863Z,15.07
2023-02-09T09:49:21.146Z,14.13
2023-02-09T09:54:24.535Z,10.05
2023-02-09T09:56:54.739Z,13.50
2023-02-09T09:59:28.049Z,13.45
2023-02-09T10:01:59.770Z,14.10
2023-02-09T10:04:30.260Z,18.42
2023-02-09T10:07:03.918Z,14.13
2023-02-09T10:09:39.435Z,12.05
2023-02-09T10:12:20.332Z,16.13
2023-02-09T10:14:50.214Z,11.93
2023-02-09T10:17:19.580Z,14.57
2023-02-09T10:20:03.266Z,14.80
2023-02-09T10:22:32.321Z,12.00
2023-02-09T10:25:03.365Z,12.63
2023-02-09T10:27:33.592Z,13.93
2023-02-09T10:30:19.518Z,12.93
2023-02-09T10:32:49.082Z,15.05
2023-02-09T10:35:27.543Z,13.07
2023-02-09T10:38:01.240Z,14.80
2023-02-09T10:40:32.766Z,14.13
2023-02-09T10:43:04.028Z,13.20
2023-02-09T10:45:40.828Z,16.98
2023-02-09T10:48:19.736Z,33.83
2023-02-09T10:50:52.736Z,13.32
2023-02-09T10:53:24.361Z,15.75
2023-02-09T10:56:00.161Z,16.73
2023-02-09T10:58:30.726Z,14.20
2023-02-09T11:01:17.372Z,13.80
2023-02-09T11:06:27.729Z,15.27
2023-02-09T11:09:02.681Z,15.32
2023-02-09T11:11:36.696Z,14.30
2023-02-09T11:14:11.309Z,17.42
2023-02-09T11:17:02.572Z,15.13
2023-02-09T11:19:59.999Z,14.02
2023-02-09T11:22:48.819Z,10.88
2023-02-09T11:25:23.280Z,10.38
2023-02-09T11:28:04.689Z,8.63
2023-02-09T11:30:55.191Z,13.18
2023-02-09T11:33:35.300Z,13.20
2023-02-09T11:36:17.232Z,16.63
2023-02-09T11:38:50.419Z,13.25
2023-02-09T11:41:43.092Z,12.00
2023-02-09T11:44:21.601Z,15.30
2023-02-09T11:46:56.226Z,11.95
2023-02-09T11:49:31.276Z,10.98
2023-02-09T11:52:01.276Z,12.43
2023-02-09T11:54:34.373Z,13.05
2023-02-09T11:57:13.400Z,9.70
2023-02-09T11:59:47.321Z,11.63
2023-02-09T12:02:31.794Z,9.13
2023-02-09T12:05:03.681Z,10.43
2023-02-09T12:07:39.389Z,9.80
2023-02-09T12:10:20.838Z,7.68
2023-02-09T12:12:56.041Z,8.40
2023-02-09T12:15:30.308Z,8.32
2023-02-09T12:18:03.736Z,7.18
2023-02-09T12:20:51.562Z,7.53
2023-02-09T12:23:24.875Z,8.13
2023-02-09T12:25:59.984Z,6.07
2023-02-09T12:28:47.251Z,7.03
2023-02-09T12:31:22.558Z,6.03
2023-02-09T12:34:15.270Z,6.40
2023-02-09T12:37:03.209Z,8.27
2023-02-09T12:39:32.267Z,8.07
2023-02-09T12:42:26.779Z,8.85
2023-02-09T12:44:57.465Z,7.65
2023-02-09T12:47:58.438Z,20.90
2023-02-09T12:50:49.593Z,19.05
2023-02-09T12:53:48.135Z,8.45
2023-02-09T12:56:43.888Z,11.05
2023-02-09T12:59:18.620Z,13.45
2023-02-09T13:02:13.956Z,10.32
2023-02-09T13:04:55.443Z,13.23
2023-02-09T13:07:31.017Z,22.63
2023-02-09T13:10:08.980Z,14.50
2023-02-09T13:12:42.430Z,11.57
2023-02-09T13:15:15.155Z,11.50
2023-02-09T13:17:51.250Z,9.63
2023-02-09T13:20:58.754Z,9.45
2023-02-09T13:23:52.341Z,8.85
2023-02-09T13:29:19.826Z,10.05
2023-02-09T13:32:01.178Z,11.90
2023-02-09T13:34:36.925Z,9.52
2023-02-09T13:37:21.432Z,12.23
2023-02-09T13:39:57.549Z,15.73
2023-02-09T13:42:29.800Z,10.63
2023-02-09T13:45:00.286Z,8.90
2023-02-09T13:47:32.343Z,8.77
2023-02-09T13:50:03.739Z,8.18
2023-02-09T13:52:39.175Z,6.10
2023-02-09T13:55:13.074Z,7.38
2023-02-09T13:57:45.353Z,6.00
2023-02-09T14:00:26.091Z,5.28
2023-02-09T14:02:58.308Z,6.65
2023-02-09T14:05:35.044Z,10.38
2023-02-09T14:08:04.551Z,7.00
2023-02-09T14:10:35.729Z,7.00
2023-02-09T14:13:11.482Z,6.78
2023-02-09T14:16:01.303Z,7.75
2023-02-09T14:18:33.533Z,16.15
2023-02-09T14:21:04.544Z,14.57
2023-02-09T14:23:35.480Z,9.15
2023-02-09T14:26:07.064Z,11.02
2023-02-09T14:28:41.734Z,9.07
2023-02-09T14:31:22.823Z,7.38
2023-02-09T14:33:53.053Z,9.88
2023-02-09T14:36:32.532Z,8.45
2023-02-09T14:39:16.816Z,8.25
2023-02-09T14:41:57.964Z,7.97
2023-02-09T14:44:28.888Z,7.82
2023-02-09T14:47:46.668Z,6.97
2023-02-09T14:50:17.776Z,7.00
2023-02-09T14:52:50.502Z,7.00
2023-02-09T14:55:22.494Z,5.38
2023-02-09T14:57:51.335Z,5.50
2023-02-09T15:00:25.655Z,8.60
2023-02-09T15:02:55.312Z,9.95
2023-02-09T15:05:26.157Z,6.65
2023-02-09T15:08:05.865Z,7.10
2023-02-09T15:10:39.547Z,6.85
2023-02-09T15:13:08.045Z,5.07
2023-02-09T15:15:39.913Z,4.28
2023-02-09T15:18:10.817Z,5.88
2023-02-09T15:20:40.979Z,5.72
2023-02-09T15:23:11.628Z,5.03
2023-02-09T15:25:48.612Z,4.82
2023-02-09T15:28:28.484Z,5.82
2023-02-09T15:30:59.522Z,6.13
2023-02-09T15:33:29.251Z,7.18
2023-02-09T15:36:00.112Z,7.40
2023-02-09T15:38:29.537Z,6.20
2023-02-09T15:41:15.493Z,5.18
2023-02-09T15:44:01.240Z,4.65
2023-02-09T15:46:48.420Z,5.72
2023-02-09T15:49:17.048Z,7.45
2023-02-09T15:51:46.169Z,15.32
2023-02-09T15:54:20.070Z,7.82
2023-02-09T15:56:50.945Z,6.32
2023-02-09T15:59:22.547Z,8.73
2023-02-09T16:01:54.322Z,6.53
2023-02-09T16:04:23.008Z,7.35
2023-02-09T16:06:53.073Z,7.25
2023-02-09T16:09:25.950Z,6.53
2023-02-09T16:11:54.429Z,6.57
2023-02-09T16:14:25.414Z,6.80
2023-02-09T16:16:55.413Z,7.28
2023-02-09T16:19:23.984Z,9.32
2023-02-09T16:21:57.047Z,9.43
2023-02-09T16:24:32.123Z,24.92
2023-02-09T16:27:02.778Z,4.97
2023-02-09T16:29:35.508Z,5.07
2023-02-09T16:32:07.576Z,5.65
2023-02-09T16:34:36.057Z,5.75
2023-02-09T16:37:05.569Z,8.43
2023-02-09T16:39:34.270Z,5.88
2023-02-09T16:42:04.801Z,5.35
2023-02-09T16:44:35.275Z,6.18
2023-02-09T16:47:12.294Z,8.10
2023-02-09T16:49:43.160Z,6.30
2023-02-09T16:52:16.608Z,7.63
2023-02-09T16:54:47.530Z,7.22
2023-02-09T16:57:18.944Z,5.72
2023-02-09T16:59:48.840Z,5.78
2023-02-09T17:02:34.912Z,4.00
2023-02-09T17:05:09.516Z,4.57
2023-02-09T17:07:52.431Z,6.72
2023-02-09T17:10:24.149Z,5.53
2023-02-09T17:12:53.713Z,9.85
2023-02-09T17:15:30.471Z,6.20
2023-02-09T17:18:05.424Z,6.53
2023-02-09T17:23:06.284Z,5.43
2023-02-09T17:25:34.867Z,9.25
2023-02-09T17:28:03.431Z,7.70
2023-02-09T17:30:34.446Z,7.65
2023-02-09T17:33:07.230Z,5.55
2023-02-09T17:36:17.834Z,7.68
2023-02-09T17:38:30.140Z,5.93
2023-02-09T17:41:00.949Z,7.25
2023-02-09T17:43:29.986Z,10.93
2023-02-09T17:45:58.960Z,9.95
2023-02-09T17:48:29.999Z,7.30
2023-02-09T17:51:00.657Z,6.20
2023-02-09T17:53:33.712Z,7.00
2023-02-09T17:56:02.710Z,6.15
2023-02-09T17:58:31.631Z,7.18
2023-02-09T18:01:00.183Z,8.93
2023-02-09T18:03:30.249Z,7.97
2023-02-09T18:06:01.894Z,6.57
2023-02-09T18:08:31.199Z,5.60
2023-02-09T18:10:59.941Z,5.15
2023-02-09T18:13:28.919Z,5.03
2023-02-09T18:15:57.512Z,6.65
2023-02-09T18:18:25.953Z,5.72
2023-02-09T18:20:55.847Z,6.82
2023-02-09T18:23:24.871Z,7.20
2023-02-09T18:25:53.638Z,8.30
2023-02-09T18:28:22.236Z,6.72
2023-02-09T18:30:50.766Z,7.75
2023-02-09T18:33:19.308Z,8.35
2023-02-09T18:35:48.083Z,6.55
2023-02-09T18:38:18.416Z,5.75
2023-02-09T18:40:47.177Z,10.80
2023-02-09T18:43:16.333Z,8.55
2023-02-09T18:45:45.463Z,9.18
2023-02-09T18:48:14.329Z,9.07
2023-02-09T18:50:42.737Z,9.75
2023-02-09T18:53:13.074Z,9.95
2023-02-09T18:55:43.008Z,14.30
2023-02-09T18:58:13.018Z,17.33
2023-02-09T19:00:41.874Z,10.95
2023-02-09T19:03:13.225Z,9.27
2023-02-09T19:05:42.464Z,10.07
2023-02-09T19:08:10.988Z,11.27
2023-02-09T19:10:40.181Z,11.07
2023-02-09T19:13:10.052Z,13.35
2023-02-09T19:15:40.007Z,8.80
2023-02-09T19:18:08.818Z,7.10
2023-02-09T19:20:37.753Z,8.77
2023-02-09T19:23:07.785Z,9.52
2023-02-09T19:25:36.529Z,8.80
2023-02-09T19:28:05.167Z,9.02
2023-02-09T19:30:35.180Z,9.75
2023-02-09T19:33:03.655Z,8.43
2023-02-09T19:35:34.721Z,9.65
2023-02-09T19:38:03.343Z,10.70
2023-02-09T19:40:36.600Z,10.27
2023-02-09T19:43:06.109Z,13.63
2023-02-09T19:45:39.044Z,10.60
2023-02-09T19:48:09.117Z,11.82
2023-02-09T19:50:38.534Z,7.70
2023-02-09T19:53:09.437Z,9.98
2023-02-09T19:55:38.023Z,11.70
2023-02-09T19:58:06.594Z,8.00
2023-02-09T20:00:36.512Z,8.05
2023-02-09T20:03:05.121Z,9.18
2023-02-09T20:05:33.686Z,7.93
2023-02-09T20:08:02.192Z,5.70
2023-02-09T20:10:30.753Z,7.15
2023-02-09T20:12:59.289Z,7.60
2023-02-09T20:15:27.972Z,9.38
2023-02-09T20:17:58.220Z,10.40
2023-02-09T20:20:26.650Z,6.97
2023-02-09T20:22:55.924Z,8.73
2023-02-09T20:25:24.452Z,5.32
2023-02-09T20:27:53.989Z,5.90
2023-02-09T20:30:22.568Z,6.60
2023-02-09T20:32:51.306Z,6.40
2023-02-09T20:35:22.057Z,6.15
2023-02-09T20:37:53.023Z,5.93
2023-02-09T20:40:21.876Z,5.28
2023-02-09T20:43:07.785Z,6.35
2023-02-09T20:45:53.349Z,4.30
2023-02-09T20:48:22.115Z,7.32
2023-02-09T20:50:51.994Z,6.57
2023-02-09T20:53:20.692Z,6.30
2023-02-09T20:55:49.190Z,4.85
2023-02-09T20:58:19.384Z,4.75
2023-02-09T21:00:48.429Z,5.03
2023-02-09T21:03:17.483Z,5.75
2023-02-09T21:05:45.956Z,5.95
2023-02-09T21:08:15.958Z,5.22
2023-02-09T21:10:44.463Z,5.45
2023-02-09T21:13:13.519Z,5.53
2023-02-09T21:15:42.968Z,5.53
2023-02-09T21:18:11.499Z,6.60
2023-02-09T21:20:40.275Z,6.28
2023-02-09T21:23:08.752Z,5.57
2023-02-09T21:25:38.838Z,4.63
2023-02-09T21:28:08.113Z,5.00
2023-02-09T21:30:36.638Z,5.72
2023-02-09T21:33:09.155Z,5.60
2023-02-09T21:35:41.002Z,6.53
2023-02-09T21:38:10.759Z,8.10
2023-02-09T21:40:44.578Z,5.75
2023-02-09T21:43:13.692Z,5.20
2023-02-09T21:45:42.298Z,4.72
2023-02-09T21:48:10.816Z,5.50
2023-02-09T21:50:40.794Z,5.07
2023-02-09T21:53:11.107Z,6.57
2023-02-09T21:55:39.588Z,6.03
2023-02-09T21:58:09.507Z,7.15
2023-02-09T22:00:38.067Z,6.20
2023-02-09T22:03:06.534Z,7.07
2023-02-09T22:05:35.285Z,8.98
2023-02-09T22:08:03.703Z,6.25
2023-02-09T22:10:32.741Z,23.00
2023-02-09T22:13:11.117Z,8.73
2023-02-09T22:15:43.737Z,5.25
2023-02-09T22:18:13.241Z,5.43
2023-02-09T22:20:42.588Z,8.63
2023-02-09T22:23:11.897Z,7.32
2023-02-09T22:25:42.487Z,7.47
2023-02-09T22:28:10.992Z,6.57
2023-02-09T22:30:39.790Z,7.88
2023-02-09T22:33:09.648Z,5.50
2023-02-09T22:35:41.670Z,10.10
2023-02-09T22:38:10.281Z,7.80
2023-02-09T22:40:41.611Z,6.38
2023-02-09T22:43:10.953Z,6.82
2023-02-09T22:45:39.537Z,6.00
2023-02-09T22:48:12.010Z,6.32
2023-02-09T22:50:40.563Z,7.90
2023-02-09T22:53:09.099Z,6.13
2023-02-09T22:55:37.586Z,7.88
2023-02-09T22:58:06.167Z,7.00
2023-02-09T23:00:34.747Z,8.93
2023-02-09T23:03:03.575Z,5.88
2023-02-09T23:05:33.414Z,8.02
2023-02-09T23:08:01.829Z,7.00
2023-02-09T23:10:30.401Z,9.15
2023-02-09T23:12:59.101Z,7.22
2023-02-09T23:15:27.575Z,8.10
2023-02-09T23:17:56.186Z,7.60
2023-02-09T23:20:24.697Z,7.82
2023-02-09T23:22:56.512Z,7.00
2023-02-09T23:25:25.326Z,9.07
2023-02-09T23:27:53.788Z,6.75
2023-02-09T23:30:23.572Z,6.72
2023-02-09T23:32:52.129Z,8.70
2023-02-09T23:35:21.551Z,8.70
2023-02-09T23:37:50.365Z,8.55
2023-02-09T23:40:21.253Z,9.02
2023-02-09T23:42:50.727Z,7.45
2023-02-09T23:45:19.204Z,7.28
2023-02-09T23:47:48.017Z,7.35
2023-02-09T23:50:16.629Z,10.68
2023-02-09T23:52:45.086Z,7.25
2023-02-09T23:55:13.596Z,6.20
2023-02-09T23:57:43.435Z,8.88
